Time;durP1;ratioP1;P1;durP2;ratioP2;P2;SDS_P1;SDS_P2;PMS_P1;PMS_P2;Temp;Humidity;BMP_temperature;BMP_pressure;BME280_temperature;BME280_humidity;BME280_pressure;Samples;Min_cycle;Max_cycle;Signal;HPM_P1;HPM_P2
2023/03/10 00:01:08;;;;;;;16.90;10.18;;;;;;;;;;5050543;28;20098;-63
2023/03/10 00:03:34;;;;;;;16.17;9.82;;;;;;;;;;5050804;28;20037;-63
2023/03/10 00:06:01;;;;;;;17.17;9.95;;;;;;;;;;5050669;28;20051;-63
2023/03/10 00:08:27;;;;;;;16.02;9.77;;;;;;;;;;5050344;28;20040;-63
2023/03/10 00:10:53;;;;;;;16.80;9.43;;;;;;;;;;5050869;28;20527;-63
2023/03/10 00:13:19;;;;;;;15.25;9.00;;;;;;;;;;5050789;28;20041;-63
2023/03/10 00:15:45;;;;;;;15.73;8.93;;;;;;;;;;5050647;28;20037;-63
2023/03/10 00:18:11;;;;;;;15.63;9.93;;;;;;;;;;5050243;28;20068;-63
2023/03/10 00:20:37;;;;;;;16.52;9.73;;;;;;;;;;5050791;28;20041;-63
2023/03/10 00:23:03;;;;;;;16.63;9.70;;;;;;;;;;5052359;28;20048;-63
2023/03/10 00:25:29;;;;;;;16.42;9.43;;;;;;;;;;5070240;28;20041;-63
2023/03/10 00:27:55;;;;;;;15.45;9.60;;;;;;;;;;5070453;28;20044;-63
2023/03/10 00:30:22;;;;;;;17.63;9.82;;;;;;;;;;5070428;28;20040;-63
2023/03/10 00:32:49;;;;;;;18.20;9.30;;;;;;;;;;5070331;28;20036;-63
2023/03/10 00:35:15;;;;;;;14.68;8.77;;;;;;;;;;5070793;28;20894;-63
2023/03/10 00:37:41;;;;;;;16.75;10.02;;;;;;;;;;5070772;28;20348;-63
2023/03/10 00:40:14;;;;;;;17.23;10.57;;;;;;;;;;5070007;28;20062;-63
2023/03/10 00:42:41;;;;;;;15.63;9.43;;;;;;;;;;5070402;28;20438;-63
2023/03/10 00:45:07;;;;;;;16.15;9.98;;;;;;;;;;5070670;28;20048;-63
2023/03/10 00:47:33;;;;;;;17.67;10.40;;;;;;;;;;5064180;28;20384;-63
2023/03/10 00:49:59;;;;;;;17.38;11.00;;;;;;;;;;5054383;28;20048;-63
2023/03/10 00:52:25;;;;;;;16.00;10.13;;;;;;;;;;5054405;28;20064;-63
2023/03/10 00:54:52;;;;;;;17.85;10.88;;;;;;;;;;5053823;28;20037;-63
2023/03/10 00:57:18;;;;;;;17.10;10.32;;;;;;;;;;5054271;28;20391;-63
2023/03/10 00:59:44;;;;;;;16.25;9.85;;;;;;;;;;5054165;28;20041;-63
2023/03/10 01:02:10;;;;;;;18.27;11.38;;;;;;;;;;5053171;28;20083;-63
2023/03/10 01:04:36;;;;;;;17.65;11.20;;;;;;;;;;5054279;28;20051;-63
2023/03/10 01:07:02;;;;;;;18.48;11.15;;;;;;;;;;5053983;28;20047;-63
2023/03/10 01:09:28;;;;;;;17.80;10.45;;;;;;;;;;5053289;28;20129;-63
2023/03/10 01:11:55;;;;;;;18.38;11.90;;;;;;;;;;5054047;28;20047;-63
2023/03/10 01:14:21;;;;;;;18.40;11.10;;;;;;;;;;5053885;28;20037;-63
2023/03/10 01:16:47;;;;;;;19.13;11.85;;;;;;;;;;5053299;28;20190;-63
2023/03/10 01:19:13;;;;;;;19.60;11.23;;;;;;;;;;5053852;28;20063;-63
2023/03/10 01:21:39;;;;;;;20.00;11.85;;;;;;;;;;5053767;28;20119;-63
2023/03/10 01:24:05;;;;;;;18.88;11.63;;;;;;;;;;5063115;28;20048;-63
2023/03/10 01:26:32;;;;;;;18.90;11.10;;;;;;;;;;5073582;28;20434;-63
2023/03/10 01:28:58;;;;;;;21.42;12.48;;;;;;;;;;5073652;28;20036;-63
2023/03/10 01:31:24;;;;;;;18.00;10.75;;;;;;;;;;5073259;28;20032;-63
2023/03/10 01:33:50;;;;;;;17.13;10.60;;;;;;;;;;5073435;28;20689;-63
2023/03/10 01:36:21;;;;;;;17.90;10.52;;;;;;;;;;5073468;28;20482;-63
2023/03/10 01:38:47;;;;;;;18.92;10.55;;;;;;;;;;5072821;28;20147;-63
2023/03/10 01:41:14;;;;;;;16.88;10.57;;;;;;;;;;5073081;28;20127;-63
2023/03/10 01:43:41;;;;;;;16.50;9.68;;;;;;;;;;5073443;28;20048;-63
2023/03/10 01:46:26;;;;;;;19.20;10.73;;;;;;;;;;5072703;28;20048;-63
2023/03/10 01:48:54;;;;;;;20.85;10.85;;;;;;;;;;5054855;28;20136;-63
2023/03/10 01:51:20;;;;;;;16.40;9.30;;;;;;;;;;5053289;28;20043;-63
2023/03/10 01:53:46;;;;;;;17.15;9.93;;;;;;;;;;5052828;28;20033;-63
2023/03/10 01:56:12;;;;;;;16.30;10.50;;;;;;;;;;5053243;28;20512;-63
2023/03/10 01:58:40;;;;;;;16.88;9.82;;;;;;;;;;5053159;28;20049;-63
2023/03/10 02:01:06;;;;;;;15.93;9.75;;;;;;;;;;5052682;28;20048;-63
2023/03/10 02:03:34;;;;;;;15.95;9.70;;;;;;;;;;5053172;28;20479;-63
2023/03/10 02:06:01;;;;;;;15.60;9.68;;;;;;;;;;5052657;28;20048;-63
2023/03/10 02:08:30;;;;;;;15.52;9.32;;;;;;;;;;5052176;28;20052;-63
2023/03/10 02:10:57;;;;;;;13.90;8.55;;;;;;;;;;5053165;28;20094;-63
2023/03/10 02:13:23;;;;;;;17.65;9.98;;;;;;;;;;5051830;28;20460;-63
2023/03/10 02:15:50;;;;;;;17.52;10.30;;;;;;;;;;5052038;28;20048;-63
2023/03/10 02:18:17;;;;;;;16.23;10.05;;;;;;;;;;5052877;28;20040;-63
2023/03/10 02:20:48;;;;;;;14.82;9.43;;;;;;;;;;5052739;28;20036;-63
2023/03/10 02:23:27;;;;;;;17.13;10.38;;;;;;;;;;5055123;28;20058;-63
2023/03/10 02:25:58;;;;;;;15.95;9.70;;;;;;;;;;5071443;28;20178;-63
2023/03/10 02:28:24;;;;;;;15.77;9.38;;;;;;;;;;5072354;28;20043;-63
2023/03/10 02:30:51;;;;;;;16.27;9.88;;;;;;;;;;5071692;28;20123;-63
2023/03/10 02:33:23;;;;;;;16.42;9.45;;;;;;;;;;5072502;28;20068;-63
2023/03/10 02:35:49;;;;;;;17.42;10.23;;;;;;;;;;5072815;28;20036;-63
2023/03/10 02:38:15;;;;;;;17.25;10.05;;;;;;;;;;5071765;28;20039;-63
2023/03/10 02:40:44;;;;;;;19.45;10.75;;;;;;;;;;5072283;28;20524;-63
2023/03/10 02:43:16;;;;;;;17.40;10.55;;;;;;;;;;5070937;28;20062;-63
2023/03/10 02:45:42;;;;;;;;;;;;;;;;;;5070419;28;20121;-63
2023/03/10 02:48:11;;;;;;;17.75;10.10;;;;;;;;;;5058291;28;20390;-63
2023/03/10 02:50:38;;;;;;;17.40;10.60;;;;;;;;;;5052095;28;20069;-63
2023/03/10 02:53:13;;;;;;;18.65;11.15;;;;;;;;;;5051589;28;20072;-63
2023/03/10 02:55:39;;;;;;;19.77;11.75;;;;;;;;;;5052059;28;20507;-63
2023/03/10 02:58:05;;;;;;;19.63;11.60;;;;;;;;;;5051762;28;20039;-63
2023/03/10 03:00:31;;;;;;;20.13;12.40;;;;;;;;;;5051220;28;20391;-63
2023/03/10 03:02:58;;;;;;;21.00;11.65;;;;;;;;;;5051984;28;20037;-63
2023/03/10 03:05:24;;;;;;;22.35;13.35;;;;;;;;;;5051528;28;20033;-63
2023/03/10 03:07:50;;;;;;;21.77;12.70;;;;;;;;;;5051109;28;20526;-63
2023/03/10 03:10:16;;;;;;;23.63;13.25;;;;;;;;;;5051283;28;20041;-63
2023/03/10 03:12:42;;;;;;;23.35;14.02;;;;;;;;;;5050245;28;20044;-63
2023/03/10 03:15:08;;;;;;;24.65;14.32;;;;;;;;;;5051035;28;20041;-63
2023/03/10 03:17:34;;;;;;;23.33;14.23;;;;;;;;;;5051714;28;20041;-63
2023/03/10 03:20:00;;;;;;;25.75;14.70;;;;;;;;;;5051331;28;20041;-64
2023/03/10 03:22:26;;;;;;;27.00;15.63;;;;;;;;;;5050798;28;20128;-64
2023/03/10 03:24:52;;;;;;;27.27;14.65;;;;;;;;;;5068143;28;20044;-64
2023/03/10 03:27:18;;;;;;;25.45;15.45;;;;;;;;;;5071223;28;20474;-64
2023/03/10 03:29:44;;;;;;;28.98;15.27;;;;;;;;;;5070423;28;20032;-64
2023/03/10 03:32:10;;;;;;;24.90;14.32;;;;;;;;;;5069996;28;20040;-64
2023/03/10 03:34:36;;;;;;;25.27;14.43;;;;;;;;;;5071372;28;20028;-64
2023/03/10 03:37:02;;;;;;;24.65;14.40;;;;;;;;;;5070440;28;20076;-64
2023/03/10 03:39:28;;;;;;;24.50;14.15;;;;;;;;;;5071269;28;20049;-64
2023/03/10 03:41:56;;;;;;;21.35;13.00;;;;;;;;;;5069722;28;20048;-64
2023/03/10 03:44:22;;;;;;;23.33;13.40;;;;;;;;;;5070671;28;20048;-64
2023/03/10 03:46:48;;;;;;;21.45;11.82;;;;;;;;;;5069852;28;20625;-64
2023/03/10 03:49:14;;;;;;;21.27;11.50;;;;;;;;;;5050754;28;20075;-64
2023/03/10 03:51:40;;;;;;;18.42;10.95;;;;;;;;;;5050728;28;20040;-64
2023/03/10 03:54:06;;;;;;;19.15;11.13;;;;;;;;;;5051150;28;20033;-64
2023/03/10 03:56:32;;;;;;;19.00;10.77;;;;;;;;;;5051170;28;20368;-64
2023/03/10 03:58:58;;;;;;;17.85;10.05;;;;;;;;;;5050472;28;20100;-64
2023/03/10 04:01:24;;;;;;;17.10;10.13;;;;;;;;;;5051043;28;20048;-64
2023/03/10 04:03:50;;;;;;;17.75;10.07;;;;;;;;;;5050870;28;20489;-64
2023/03/10 04:06:16;;;;;;;18.83;10.77;;;;;;;;;;5050365;28;20083;-63
2023/03/10 04:08:42;;;;;;;15.98;9.48;;;;;;;;;;5051012;28;20576;-63
2023/03/10 04:11:08;;;;;;;17.35;10.25;;;;;;;;;;5050978;28;20450;-63
2023/03/10 04:13:36;;;;;;;16.33;9.48;;;;;;;;;;5050383;28;20506;-63
2023/03/10 04:16:02;;;;;;;16.83;9.50;;;;;;;;;;5050935;28;20481;-63
2023/03/10 04:18:28;;;;;;;16.83;9.52;;;;;;;;;;5050711;28;20495;-63
2023/03/10 04:20:54;;;;;;;15.35;8.52;;;;;;;;;;5050268;28;20590;-63
2023/03/10 04:23:20;;;;;;;14.48;8.75;;;;;;;;;;5057763;28;20097;-63
2023/03/10 04:25:47;;;;;;;15.88;9.32;;;;;;;;;;5074608;28;20040;-63
2023/03/10 04:28:13;;;;;;;15.35;9.20;;;;;;;;;;5072746;28;20124;-63
2023/03/10 04:30:41;;;;;;;14.75;8.70;;;;;;;;;;5074800;28;20048;-63
2023/03/10 04:33:08;;;;;;;14.73;9.00;;;;;;;;;;5074732;28;20040;-63
2023/03/10 04:35:38;;;;;;;13.55;8.10;;;;;;;;;;5073134;28;20048;-63
2023/03/10 04:38:04;;;;;;;17.55;9.32;;;;;;;;;;5074542;28;20040;-63
2023/03/10 04:40:30;;;;;;;14.40;8.88;;;;;;;;;;5074593;28;20083;-63
2023/03/10 04:42:56;;;;;;;16.48;8.57;;;;;;;;;;5073574;28;20063;-63
2023/03/10 04:45:22;;;;;;;14.00;7.90;;;;;;;;;;5074317;28;20044;-63
2023/03/10 04:47:48;;;;;;;13.68;8.43;;;;;;;;;;5064999;28;20438;-63
2023/03/10 04:50:16;;;;;;;15.88;8.55;;;;;;;;;;5053719;28;20472;-63
2023/03/10 04:52:43;;;;;;;13.68;7.97;;;;;;;;;;5054544;28;20041;-63
2023/03/10 04:55:10;;;;;;;14.68;7.88;;;;;;;;;;5054388;28;20073;-63
2023/03/10 04:57:36;;;;;;;15.70;8.35;;;;;;;;;;5053864;28;20430;-63
2023/03/10 05:00:04;;;;;;;13.95;8.38;;;;;;;;;;5054472;28;20045;-63
2023/03/10 05:02:31;;;;;;;14.75;8.50;;;;;;;;;;5054261;28;20049;-63
2023/03/10 05:04:57;;;;;;;13.65;8.05;;;;;;;;;;5053711;28;20068;-63
2023/03/10 05:07:23;;;;;;;13.82;8.07;;;;;;;;;;5054092;28;20132;-63
2023/03/10 05:09:49;;;;;;;12.20;7.70;;;;;;;;;;5053783;28;20044;-63
2023/03/10 05:12:15;;;;;;;13.43;8.35;;;;;;;;;;5053412;28;20431;-63
2023/03/10 05:14:41;;;;;;;13.27;7.57;;;;;;;;;;5053909;28;20560;-63
2023/03/10 05:17:07;;;;;;;12.93;7.95;;;;;;;;;;5053726;28;20049;-63
2023/03/10 05:19:34;;;;;;;13.82;8.23;;;;;;;;;;5053249;28;20091;-63
2023/03/10 05:22:00;;;;;;;14.63;8.65;;;;;;;;;;5054176;28;20806;-63
2023/03/10 05:24:26;;;;;;;12.32;7.07;;;;;;;;;;5067229;28;20043;-63
2023/03/10 05:26:52;;;;;;;14.98;8.70;;;;;;;;;;5071959;28;20159;-63
2023/03/10 05:29:19;;;;;;;13.27;8.35;;;;;;;;;;5073771;28;20044;-63
2023/03/10 05:31:45;;;;;;;13.57;8.15;;;;;;;;;;5074005;28;20479;-63
2023/03/10 05:34:13;;;;;;;15.85;8.80;;;;;;;;;;5072767;28;20387;-63
2023/03/10 05:36:39;;;;;;;14.48;8.50;;;;;;;;;;5074210;28;20056;-63
2023/03/10 05:39:05;;;;;;;16.48;9.07;;;;;;;;;;5073812;28;20037;-63
2023/03/10 05:41:31;;;;;;;15.88;8.88;;;;;;;;;;5073126;28;20055;-63
2023/03/10 05:43:57;;;;;;;16.98;9.38;;;;;;;;;;5073982;28;20044;-63
2023/03/10 05:46:24;;;;;;;17.67;9.25;;;;;;;;;;5073958;28;20041;-63
2023/03/10 05:48:50;;;;;;;14.15;8.20;;;;;;;;;;5055329;28;20037;-63
2023/03/10 05:51:16;;;;;;;18.83;9.35;;;;;;;;;;5053776;28;20383;-63
2023/03/10 05:53:42;;;;;;;13.68;8.15;;;;;;;;;;5053510;28;20507;-63
2023/03/10 05:56:12;;;;;;;16.52;8.90;;;;;;;;;;5053667;28;20098;-63
2023/03/10 05:58:39;;;;;;;17.02;9.18;;;;;;;;;;5053379;28;20128;-63
2023/03/10 06:01:06;;;;;;;15.55;9.20;;;;;;;;;;5052038;28;20048;-63
2023/03/10 06:03:32;;;;;;;18.02;9.65;;;;;;;;;;5053162;28;20044;-63
2023/03/10 06:05:58;;;;;;;16.95;10.15;;;;;;;;;;5052951;28;20386;-63
2023/03/10 06:08:26;;;;;;;15.90;9.15;;;;;;;;;;5053348;28;20033;-63
2023/03/10 06:10:53;;;;;;;18.33;10.35;;;;;;;;;;5053384;28;20128;-63
2023/03/10 06:13:20;;;;;;;19.88;11.40;;;;;;;;;;5052722;28;20454;-63
2023/03/10 06:15:49;;;;;;;20.33;11.35;;;;;;;;;;5053324;28;20033;-63
2023/03/10 06:18:16;;;;;;;20.90;11.35;;;;;;;;;;5053109;28;20463;-63
2023/03/10 06:20:42;;;;;;;25.48;13.48;;;;;;;;;;5052708;28;20060;-63
2023/03/10 06:23:08;;;;;;;23.17;12.73;;;;;;;;;;5055446;28;20426;-63
2023/03/10 06:25:34;;;;;;;26.75;14.43;;;;;;;;;;5073135;28;20045;-63
2023/03/10 06:28:00;;;;;;;27.25;14.43;;;;;;;;;;5072088;28;20139;-63
2023/03/10 06:30:26;;;;;;;29.27;15.10;;;;;;;;;;5071330;28;20132;-62
2023/03/10 06:32:52;;;;;;;28.30;14.73;;;;;;;;;;5056009;28;20045;-62
2023/03/10 06:35:18;;;;;;;31.00;16.80;;;;;;;;;;5060617;28;20040;-62
2023/03/10 06:37:44;;;;;;;28.10;14.93;;;;;;;;;;5062592;28;20141;-62
2023/03/10 06:40:11;;;;;;;31.05;16.63;;;;;;;;;;5061059;28;20041;-62
2023/03/10 06:42:39;;;;;;;32.15;16.73;;;;;;;;;;5059349;28;20044;-62
2023/03/10 06:45:05;;;;;;;37.22;17.80;;;;;;;;;;5059870;28;20523;-62
2023/03/10 06:47:31;;;;;;;35.53;17.77;;;;;;;;;;5061261;28;20688;-62
2023/03/10 06:49:57;;;;;;;31.27;15.85;;;;;;;;;;5066054;28;20420;-60
2023/03/10 06:52:23;;;;;;;34.13;18.17;;;;;;;;;;5071782;28;20048;-59
2023/03/10 06:54:49;;;;;;;34.75;17.70;;;;;;;;;;5055179;28;20034;-58
2023/03/10 06:57:15;;;;;;;36.92;18.52;;;;;;;;;;5055673;28;20726;-59
2023/03/10 06:59:41;;;;;;;35.13;18.67;;;;;;;;;;5071689;28;20044;-60
2023/03/10 07:02:09;;;;;;;33.95;17.48;;;;;;;;;;5069794;28;20170;-59
2023/03/10 07:04:36;;;;;;;37.72;18.20;;;;;;;;;;5070358;28;20036;-60
2023/03/10 07:07:02;;;;;;;33.42;17.15;;;;;;;;;;5053271;28;20387;-60
2023/03/10 07:09:28;;;;;;;37.28;18.45;;;;;;;;;;5066769;28;20040;-62
2023/03/10 07:11:54;;;;;;;37.22;18.83;;;;;;;;;;5066093;28;20032;-60
2023/03/10 07:14:20;;;;;;;34.13;17.70;;;;;;;;;;5064212;28;20043;-61
2023/03/10 07:16:46;;;;;;;33.78;17.02;;;;;;;;;;5071851;28;20044;-60
2023/03/10 07:19:12;;;;;;;34.25;18.25;;;;;;;;;;5052254;28;20123;-61
2023/03/10 07:21:38;;;;;;;33.30;17.60;;;;;;;;;;5057263;28;20044;-60
2023/03/10 07:24:05;;;;;;;33.13;16.95;;;;;;;;;;5067264;28;20063;-62
2023/03/10 07:26:31;;;;;;;32.95;17.48;;;;;;;;;;5066419;28;20723;-60
2023/03/10 07:28:57;;;;;;;35.03;17.38;;;;;;;;;;5055232;28;20052;-61
2023/03/10 07:31:23;;;;;;;34.95;16.88;;;;;;;;;;5068661;28;20098;-61
2023/03/10 07:33:49;;;;;;;31.70;16.83;;;;;;;;;;5060140;28;20750;-62
2023/03/10 07:36:16;;;;;;;32.42;17.33;;;;;;;;;;5060014;28;20119;-59
2023/03/10 07:38:42;;;;;;;38.22;18.13;;;;;;;;;;5064389;28;20075;-60
2023/03/10 07:41:09;;;;;;;34.63;17.40;;;;;;;;;;5065335;28;20080;-62
2023/03/10 07:43:35;;;;;;;35.72;16.60;;;;;;;;;;5021519;28;20056;-61
2023/03/10 07:46:05;;;;;;;35.03;17.65;;;;;;;;;;5054138;28;20045;-61
2023/03/10 07:48:31;;;;;;;32.33;16.40;;;;;;;;;;5061864;28;20418;-61
2023/03/10 07:50:58;;;;;;;29.92;15.43;;;;;;;;;;5051986;28;20036;-62
2023/03/10 07:53:24;;;;;;;29.05;16.15;;;;;;;;;;5065589;28;20044;-61
2023/03/10 07:55:51;;;;;;;31.98;15.60;;;;;;;;;;5049343;28;20094;-61
2023/03/10 07:58:17;;;;;;;26.13;14.43;;;;;;;;;;5052349;28;20547;-61
2023/03/10 08:00:43;;;;;;;27.02;14.15;;;;;;;;;;5041182;28;20036;-62
2023/03/10 08:03:09;;;;;;;30.83;15.43;;;;;;;;;;5057091;28;20546;-61
2023/03/10 08:05:40;;;;;;;28.30;15.15;;;;;;;;;;5050358;28;20044;-61
2023/03/10 08:08:06;;;;;;;26.30;14.07;;;;;;;;;;5050006;28;20083;-61
2023/03/10 08:10:32;;;;;;;28.67;15.18;;;;;;;;;;5060930;28;20459;-61
2023/03/10 08:12:58;;;;;;;30.23;15.55;;;;;;;;;;5064466;28;20064;-60
2023/03/10 08:15:25;;;;;;;26.98;14.93;;;;;;;;;;5048569;28;20131;-62
2023/03/10 08:17:51;;;;;;;27.40;15.18;;;;;;;;;;5051396;28;20961;-61
2023/03/10 08:20:17;;;;;;;27.85;15.10;;;;;;;;;;5052312;28;20037;-62
2023/03/10 08:22:43;;;;;;;28.08;14.85;;;;;;;;;;5064464;28;20114;-62
2023/03/10 08:25:11;;;;;;;29.40;15.43;;;;;;;;;;5052582;28;20052;-61
2023/03/10 08:27:37;;;;;;;31.27;15.70;;;;;;;;;;5059602;28;20084;-61
2023/03/10 08:30:04;;;;;;;27.83;15.80;;;;;;;;;;5049587;28;20037;-62
2023/03/10 08:32:30;;;;;;;27.05;14.75;;;;;;;;;;5049600;28;20408;-62
2023/03/10 08:34:56;;;;;;;26.67;14.45;;;;;;;;;;5053167;28;20044;-61
2023/03/10 08:37:22;;;;;;;26.80;15.05;;;;;;;;;;5068334;28;20072;-62
2023/03/10 08:39:50;;;;;;;25.73;13.32;;;;;;;;;;5060616;28;20352;-62
2023/03/10 08:42:16;;;;;;;27.92;14.43;;;;;;;;;;5052488;28;20080;-62
2023/03/10 08:44:43;;;;;;;27.05;14.30;;;;;;;;;;5049426;28;20037;-62
2023/03/10 08:47:09;;;;;;;29.13;15.00;;;;;;;;;;5030750;28;20041;-62
2023/03/10 08:49:35;;;;;;;25.40;14.77;;;;;;;;;;5055552;28;20116;-61
2023/03/10 08:52:01;;;;;;;29.80;14.65;;;;;;;;;;5050301;28;20467;-61
2023/03/10 08:54:27;;;;;;;28.30;15.02;;;;;;;;;;5047181;28;20080;-61
2023/03/10 08:56:53;;;;;;;28.75;15.55;;;;;;;;;;5049810;28;20412;-61
2023/03/10 08:59:20;;;;;;;27.65;15.05;;;;;;;;;;5065833;28;20040;-61
2023/03/10 09:01:46;;;;;;;26.30;13.80;;;;;;;;;;5065057;28;20040;-61
2023/03/10 09:04:12;;;;;;;27.55;14.57;;;;;;;;;;5069073;28;20115;-61
2023/03/10 09:06:38;;;;;;;25.08;14.38;;;;;;;;;;5056883;28;20090;-62
2023/03/10 09:09:05;;;;;;;28.10;14.77;;;;;;;;;;5051757;28;20045;-61
2023/03/10 09:11:32;;;;;;;26.52;15.23;;;;;;;;;;5062605;28;20127;-62
2023/03/10 09:14:00;;;;;;;27.17;14.23;;;;;;;;;;5060573;28;20163;-62
2023/03/10 09:16:27;;;;;;;27.25;14.70;;;;;;;;;;5058882;28;20037;-62
2023/03/10 09:18:53;;;;;;;25.10;13.93;;;;;;;;;;5065616;28;20546;-61
2023/03/10 09:21:19;;;;;;;27.10;14.02;;;;;;;;;;5070964;28;20052;-60
2023/03/10 09:23:47;;;;;;;28.25;15.18;;;;;;;;;;5064147;28;20045;-63
2023/03/10 09:26:13;;;;;;;32.03;15.52;;;;;;;;;;5059273;28;20042;-61
2023/03/10 09:28:39;;;;;;;26.52;15.30;;;;;;;;;;5073268;28;20056;-61
2023/03/10 09:31:06;;;;;;;24.98;13.52;;;;;;;;;;5057372;28;20967;-60
2023/03/10 09:33:33;;;;;;;25.05;13.98;;;;;;;;;;5054527;28;20036;-61
2023/03/10 09:36:01;;;;;;;25.98;14.27;;;;;;;;;;5066453;28;20758;-60
2023/03/10 09:38:27;;;;;;;25.42;13.90;;;;;;;;;;5070000;28;20399;-61
2023/03/10 09:40:56;;;;;;;23.95;13.73;;;;;;;;;;5072098;28;20093;-62
2023/03/10 09:43:22;;;;;;;24.88;14.10;;;;;;;;;;5069780;28;20049;-60
2023/03/10 09:46:11;;;;;;;24.48;13.93;;;;;;;;;;5069128;28;20118;-61
2023/03/10 09:48:50;;;;;;;26.17;15.10;;;;;;;;;;5056771;28;20041;-61
2023/03/10 09:51:23;;;;;;;24.90;13.52;;;;;;;;;;5054597;28;20083;-61
2023/03/10 09:54:28;;;;;;;26.42;14.45;;;;;;;;;;5053557;28;20044;-61
2023/03/10 09:56:55;;;;;;;23.85;13.45;;;;;;;;;;5029222;28;20045;-61
2023/03/10 09:59:28;;;;;;;23.50;13.25;;;;;;;;;;5047017;28;20056;-61
2023/03/10 10:01:55;;;;;;;24.85;13.38;;;;;;;;;;5054552;28;20057;-62
2023/03/10 10:04:22;;;;;;;22.10;12.88;;;;;;;;;;5054113;28;20041;-60
2023/03/10 10:06:50;;;;;;;24.55;13.65;;;;;;;;;;5063882;28;20091;-60
2023/03/10 10:09:40;;;;;;;25.95;14.32;;;;;;;;;;5072201;28;20094;-60
2023/03/10 10:12:22;;;;;;;24.27;13.85;;;;;;;;;;5055373;28;20059;-61
2023/03/10 10:14:50;;;;;;;26.53;13.50;;;;;;;;;;5056966;28;20041;-59
2023/03/10 10:17:19;;;;;;;25.08;14.30;;;;;;;;;;5051418;28;20849;-60
2023/03/10 10:19:46;;;;;;;26.02;13.80;;;;;;;;;;5056768;28;20055;-59
2023/03/10 10:22:34;;;;;;;23.55;13.65;;;;;;;;;;5063943;28;20399;-59
2023/03/10 10:25:09;;;;;;;25.20;14.32;;;;;;;;;;5069096;28;20128;-59
2023/03/10 10:27:39;;;;;;;25.50;14.55;;;;;;;;;;5055757;28;20033;-60
2023/03/10 10:30:24;;;;;;;23.25;13.15;;;;;;;;;;5054436;28;20118;-61
2023/03/10 10:32:55;;;;;;;23.80;13.52;;;;;;;;;;5062334;28;20080;-61
2023/03/10 10:35:23;;;;;;;26.40;13.80;;;;;;;;;;5057581;28;20046;-62
2023/03/10 10:37:58;;;;;;;24.63;12.73;;;;;;;;;;5058391;28;20048;-61
2023/03/10 10:40:25;;;;;;;27.63;15.05;;;;;;;;;;5054697;28;20036;-62
2023/03/10 10:42:52;;;;;;;28.45;14.95;;;;;;;;;;5054658;28;20126;-61
2023/03/10 10:45:29;;;;;;;26.25;15.35;;;;;;;;;;5051200;28;20543;-61
2023/03/10 10:47:55;;;;;;;27.65;15.25;;;;;;;;;;5059149;28;20044;-61
2023/03/10 10:50:24;;;;;;;27.58;15.38;;;;;;;;;;5051104;28;20140;-62
2023/03/10 10:52:52;;;;;;;30.20;16.00;;;;;;;;;;5051024;28;20094;-62
2023/03/10 10:55:25;;;;;;;29.08;16.17;;;;;;;;;;5051283;28;20045;-61
2023/03/10 10:57:56;;;;;;;29.77;15.90;;;;;;;;;;5049339;28;20103;-60
2023/03/10 11:00:26;;;;;;;29.55;16.55;;;;;;;;;;5050991;28;20063;-58
2023/03/10 11:02:53;;;;;;;31.00;16.17;;;;;;;;;;5050838;28;20033;-61
2023/03/10 11:05:24;;;;;;;28.23;15.82;;;;;;;;;;5051345;28;20098;-59
2023/03/10 11:07:51;;;;;;;32.30;16.85;;;;;;;;;;5068289;28;20132;-59
2023/03/10 11:10:22;;;;;;;28.73;16.58;;;;;;;;;;5068736;28;20076;-59
2023/03/10 11:12:59;;;;;;;30.47;16.27;;;;;;;;;;5070930;28;20070;-61
2023/03/10 11:15:30;;;;;;;29.48;16.52;;;;;;;;;;5067811;28;20794;-61
2023/03/10 11:18:02;;;;;;;31.23;16.63;;;;;;;;;;5067649;28;20045;-60
2023/03/10 11:20:28;;;;;;;28.73;15.43;;;;;;;;;;5071190;28;20094;-60
2023/03/10 11:23:04;;;;;;;29.77;15.73;;;;;;;;;;5067130;28;20050;-60
2023/03/10 11:25:36;;;;;;;26.30;15.65;;;;;;;;;;5051387;28;20072;-62
2023/03/10 11:28:02;;;;;;;;;;;;;;;;;;5050965;28;20047;-59
2023/03/10 11:30:37;;;;;;;31.17;15.20;;;;;;;;;;5049921;28;20362;-60
2023/03/10 11:33:22;;;;;;;29.85;16.08;;;;;;;;;;5050455;28;20755;-60
2023/03/10 11:35:50;;;;;;;28.75;15.73;;;;;;;;;;5050076;28;20044;-61
2023/03/10 11:38:27;;;;;;;28.88;15.02;;;;;;;;;;5049190;28;20476;-61
2023/03/10 11:41:13;;;;;;;27.90;15.77;;;;;;;;;;5050804;28;20049;-61
2023/03/10 11:43:58;;;;;;;33.70;17.65;;;;;;;;;;5064950;28;20056;-61
2023/03/10 11:46:28;;;;;;;28.92;15.65;;;;;;;;;;5066074;28;20044;-61
2023/03/10 11:49:04;;;;;;;29.40;15.57;;;;;;;;;;5063289;28;20045;-61
2023/03/10 11:51:30;;;;;;;27.85;15.02;;;;;;;;;;5063462;28;20402;-60
2023/03/10 11:53:57;;;;;;;29.35;16.17;;;;;;;;;;5070641;28;20036;-61
2023/03/10 11:56:25;;;;;;;25.73;14.35;;;;;;;;;;5050468;28;20549;-60
2023/03/10 11:59:01;;;;;;;26.80;14.88;;;;;;;;;;5056276;28;20051;-60
2023/03/10 12:01:30;;;;;;;29.63;16.25;;;;;;;;;;5070542;28;20115;-60
2023/03/10 12:04:12;;;;;;;27.27;14.73;;;;;;;;;;5053552;28;20051;-59
2023/03/10 12:06:41;;;;;;;24.95;13.27;;;;;;;;;;5054988;28;20450;-61
2023/03/10 12:09:14;;;;;;;30.15;15.38;;;;;;;;;;5070429;28;20045;-61
2023/03/10 12:11:40;;;;;;;27.35;15.65;;;;;;;;;;5054920;28;20076;-60
2023/03/10 12:14:06;;;;;;;28.95;14.50;;;;;;;;;;5049591;28;20048;-59
2023/03/10 12:16:35;;;;;;;28.38;15.25;;;;;;;;;;5050365;28;20080;-59
2023/03/10 12:19:03;;;;;;;26.42;13.80;;;;;;;;;;5058352;28;20123;-59
2023/03/10 12:21:30;;;;;;;27.65;14.52;;;;;;;;;;5069487;28;20431;-59
2023/03/10 12:23:57;;;;;;;24.58;14.10;;;;;;;;;;5063622;28;20086;-60
2023/03/10 12:26:39;;;;;;;24.30;14.07;;;;;;;;;;5067810;28;20475;-60
2023/03/10 12:29:20;;;;;;;26.50;14.13;;;;;;;;;;5049546;28;20045;-60
2023/03/10 12:31:53;;;;;;;27.27;14.35;;;;;;;;;;5062765;28;20039;-60
2023/03/10 12:34:22;;;;;;;26.88;13.63;;;;;;;;;;5068572;28;20046;-59
2023/03/10 12:36:52;;;;;;;25.35;14.25;;;;;;;;;;5049194;28;20056;-60
2023/03/10 12:39:27;;;;;;;27.30;14.32;;;;;;;;;;5059249;28;20046;-60
2023/03/10 12:41:57;;;;;;;24.85;13.68;;;;;;;;;;5069903;28;20056;-60
2023/03/10 12:44:29;;;;;;;25.33;14.27;;;;;;;;;;5053998;28;20102;-59
2023/03/10 12:47:08;;;;;;;23.20;13.65;;;;;;;;;;5057218;28;20098;-60
2023/03/10 12:49:44;;;;;;;24.00;14.68;;;;;;;;;;5053919;28;20045;-61
2023/03/10 12:52:10;;;;;;;24.85;13.07;;;;;;;;;;5069350;28;20064;-61
2023/03/10 12:54:43;;;;;;;25.80;13.57;;;;;;;;;;5070551;28;20033;-61
2023/03/10 12:57:29;;;;;;;23.30;13.07;;;;;;;;;;5053629;28;20447;-61
2023/03/10 13:00:34;;;;;;;26.25;14.45;;;;;;;;;;5065337;28;20055;-60
2023/03/10 13:03:04;;;;;;;25.70;13.30;;;;;;;;;;5070433;28;20105;-60
2023/03/10 13:05:32;;;;;;;25.25;13.27;;;;;;;;;;5069875;28;20082;-61
2023/03/10 13:08:19;;;;;;;23.30;13.18;;;;;;;;;;5051387;28;20052;-61
2023/03/10 13:10:46;;;;;;;25.73;13.80;;;;;;;;;;5053293;28;20427;-60
2023/03/10 13:13:15;;;;;;;23.80;13.43;;;;;;;;;;5052818;28;20435;-61
2023/03/10 13:15:41;;;;;;;23.70;12.88;;;;;;;;;;5064512;28;20127;-61
2023/03/10 13:18:16;;;;;;;22.45;13.43;;;;;;;;;;5073503;28;20054;-61
2023/03/10 13:20:42;;;;;;;20.25;11.90;;;;;;;;;;5052852;28;20037;-60
2023/03/10 13:23:23;;;;;;;25.20;13.40;;;;;;;;;;5057738;28;20032;-59
2023/03/10 13:25:53;;;;;;;25.50;13.80;;;;;;;;;;5052929;28;20099;-61
2023/03/10 13:28:19;;;;;;;23.25;12.93;;;;;;;;;;5068677;28;20048;-61
2023/03/10 13:30:45;;;;;;;23.98;13.50;;;;;;;;;;5071951;28;20040;-61
2023/03/10 13:33:22;;;;;;;22.83;12.55;;;;;;;;;;5073313;28;20041;-61
2023/03/10 13:35:48;;;;;;;22.23;12.43;;;;;;;;;;5060185;28;20036;-60
2023/03/10 13:38:16;;;;;;;22.00;11.98;;;;;;;;;;5053262;28;20116;-61
2023/03/10 13:40:44;;;;;;;20.63;10.88;;;;;;;;;;5071251;28;20041;-60
2023/03/10 13:43:25;;;;;;;20.35;11.57;;;;;;;;;;5064454;28;20432;-61
2023/03/10 13:45:55;;;;;;;17.90;10.18;;;;;;;;;;5052735;28;20049;-61
2023/03/10 13:48:22;;;;;;;18.23;9.90;;;;;;;;;;5055125;28;20445;-61
2023/03/10 13:51:02;;;;;;;16.00;9.13;;;;;;;;;;5068656;28;20033;-61
2023/03/10 13:53:28;;;;;;;17.08;9.52;;;;;;;;;;5052360;28;20479;-61
2023/03/10 13:55:56;;;;;;;14.55;7.78;;;;;;;;;;5051905;28;20077;-62
2023/03/10 13:58:23;;;;;;;15.68;9.23;;;;;;;;;;5052191;28;20040;-62
2023/03/10 14:00:50;;;;;;;16.88;9.52;;;;;;;;;;5071762;28;20044;-62
2023/03/10 14:03:16;;;;;;;17.17;9.30;;;;;;;;;;5065776;28;20147;-61
2023/03/10 14:05:44;;;;;;;15.27;9.02;;;;;;;;;;5051899;28;20037;-61
2023/03/10 14:08:17;;;;;;;14.25;9.02;;;;;;;;;;5066253;28;20047;-61
2023/03/10 14:10:44;;;;;;;15.73;8.20;;;;;;;;;;5070464;28;20115;-61
2023/03/10 14:13:30;;;;;;;16.85;9.27;;;;;;;;;;5051884;28;20418;-62
2023/03/10 14:15:56;;;;;;;15.10;8.63;;;;;;;;;;5062968;28;20608;-61
2023/03/10 14:18:26;;;;;;;14.00;8.23;;;;;;;;;;5072103;28;20102;-61
2023/03/10 14:20:52;;;;;;;16.17;9.77;;;;;;;;;;5052225;28;20064;-60
2023/03/10 14:23:18;;;;;;;15.02;9.43;;;;;;;;;;5054704;28;20040;-60
2023/03/10 14:25:55;;;;;;;16.20;9.38;;;;;;;;;;5051740;28;20043;-60
2023/03/10 14:28:23;;;;;;;15.45;9.13;;;;;;;;;;5066097;28;20059;-60